sensor_id;sensor_type;location;lat;lon;timestamp;pressure;altitude;pressure_sealevel;temperature
17142;BMP180;32805;53.556;9.944;2023-03-17T00:00:35;101000.00;;;6.50
17142;BMP180;32805;53.556;9.944;2023-03-17T00:03:04;100987.00;;;6.50
17142;BMP180;32805;53.556;9.944;2023-03-17T00:05:34;100998.00;;;6.50
17142;BMP180;32805;53.556;9.944;2023-03-17T00:08:09;100999.00;;;6.50
17142;BMP180;32805;53.556;9.944;2023-03-17T00:10:37;100997.00;;;6.50
17142;BMP180;32805;53.556;9.944;2023-03-17T00:13:05;100999.00;;;6.50
17142;BMP180;32805;53.556;9.944;2023-03-17T00:15:33;100986.00;;;6.50
17142;BMP180;32805;53.556;9.944;2023-03-17T00:18:01;100984.00;;;6.50
17142;BMP180;32805;53.556;9.944;2023-03-17T00:20:30;100980.00;;;6.50
17142;BMP180;32805;53.556;9.944;2023-03-17T00:22:59;100986.00;;;6.60
17142;BMP180;32805;53.556;9.944;2023-03-17T00:25:32;100991.00;;;6.50
17142;BMP180;32805;53.556;9.944;2023-03-17T00:28:00;100980.00;;;6.60
17142;BMP180;32805;53.556;9.944;2023-03-17T00:30:30;100995.00;;;6.60
17142;BMP180;32805;53.556;9.944;2023-03-17T00:32:58;100995.00;;;6.50
17142;BMP180;32805;53.556;9.944;2023-03-17T00:35:27;100973.00;;;6.50
17142;BMP180;32805;53.556;9.944;2023-03-17T00:37:56;100982.00;;;6.50
17142;BMP180;32805;53.556;9.944;2023-03-17T00:40:26;100994.00;;;6.50
17142;BMP180;32805;53.556;9.944;2023-03-17T00:42:57;100991.00;;;6.50
17142;BMP180;32805;53.556;9.944;2023-03-17T00:45:25;100984.00;;;6.50
17142;BMP180;32805;53.556;9.944;2023-03-17T00:47:54;100981.00;;;6.40
17142;BMP180;32805;53.556;9.944;2023-03-17T00:50:24;100975.00;;;6.40
17142;BMP180;32805;53.556;9.944;2023-03-17T00:52:55;100969.00;;;6.40
17142;BMP180;32805;53.556;9.944;2023-03-17T00:55:24;100966.00;;;6.30
17142;BMP180;32805;53.556;9.944;2023-03-17T00:57:53;100964.00;;;6.20
17142;BMP180;32805;53.556;9.944;2023-03-17T01:00:26;100956.00;;;6.20
17142;BMP180;32805;53.556;9.944;2023-03-17T01:02:56;100958.00;;;6.10
17142;BMP180;32805;53.556;9.944;2023-03-17T01:05:25;100957.00;;;6.10
17142;BMP180;32805;53.556;9.944;2023-03-17T01:07:55;100961.00;;;6.10
17142;BMP180;32805;53.556;9.944;2023-03-17T01:10:26;100963.00;;;6.10
17142;BMP180;32805;53.556;9.944;2023-03-17T01:12:57;100968.00;;;6.00
17142;BMP180;32805;53.556;9.944;2023-03-17T01:15:28;100969.00;;;6.00
17142;BMP180;32805;53.556;9.944;2023-03-17T01:17:57;100972.00;;;6.00
17142;BMP180;32805;53.556;9.944;2023-03-17T01:20:26;100977.00;;;6.00
17142;BMP180;32805;53.556;9.944;2023-03-17T01:22:54;100976.00;;;6.00
17142;BMP180;32805;53.556;9.944;2023-03-17T01:25:22;100975.00;;;6.00
17142;BMP180;32805;53.556;9.944;2023-03-17T01:27:50;100965.00;;;6.00
17142;BMP180;32805;53.556;9.944;2023-03-17T01:30:23;100968.00;;;6.00
17142;BMP180;32805;53.556;9.944;2023-03-17T01:32:53;100960.00;;;5.90
17142;BMP180;32805;53.556;9.944;2023-03-17T01:35:22;100956.00;;;5.90
17142;BMP180;32805;53.556;9.944;2023-03-17T01:37:51;100951.00;;;5.90
17142;BMP180;32805;53.556;9.944;2023-03-17T01:40:21;100959.00;;;5.80
17142;BMP180;32805;53.556;9.944;2023-03-17T01:42:52;100952.00;;;5.80
17142;BMP180;32805;53.556;9.944;2023-03-17T01:48:26;100937.00;;;5.80
17142;BMP180;32805;53.556;9.944;2023-03-17T01:50:55;100937.00;;;5.80
17142;BMP180;32805;53.556;9.944;2023-03-17T01:53:25;100940.00;;;5.80
17142;BMP180;32805;53.556;9.944;2023-03-17T01:55:55;100936.00;;;5.80
17142;BMP180;32805;53.556;9.944;2023-03-17T01:58:23;100935.00;;;5.80
17142;BMP180;32805;53.556;9.944;2023-03-17T02:00:51;100932.00;;;5.90
17142;BMP180;32805;53.556;9.944;2023-03-17T02:03:19;100931.00;;;5.80
17142;BMP180;32805;53.556;9.944;2023-03-17T02:05:51;100942.00;;;5.80
17142;BMP180;32805;53.556;9.944;2023-03-17T02:08:19;100939.00;;;5.80
17142;BMP180;32805;53.556;9.944;2023-03-17T02:10:47;100924.00;;;5.80
17142;BMP180;32805;53.556;9.944;2023-03-17T02:13:15;100910.00;;;5.90
17142;BMP180;32805;53.556;9.944;2023-03-17T02:15:45;100895.00;;;5.90
17142;BMP180;32805;53.556;9.944;2023-03-17T02:18:15;100905.00;;;5.90
17142;BMP180;32805;53.556;9.944;2023-03-17T02:23:45;100891.00;;;6.00
17142;BMP180;32805;53.556;9.944;2023-03-17T02:26:13;100899.00;;;6.00
17142;BMP180;32805;53.556;9.944;2023-03-17T02:28:40;100882.00;;;6.00
17142;BMP180;32805;53.556;9.944;2023-03-17T02:31:11;100903.00;;;6.00
17142;BMP180;32805;53.556;9.944;2023-03-17T02:33:39;100908.00;;;6.00
17142;BMP180;32805;53.556;9.944;2023-03-17T02:36:08;100917.00;;;6.00
17142;BMP180;32805;53.556;9.944;2023-03-17T02:38:36;100909.00;;;6.10
17142;BMP180;32805;53.556;9.944;2023-03-17T02:41:06;100913.00;;;6.00
17142;BMP180;32805;53.556;9.944;2023-03-17T02:43:35;100910.00;;;6.00
17142;BMP180;32805;53.556;9.944;2023-03-17T02:46:03;100914.00;;;6.10
17142;BMP180;32805;53.556;9.944;2023-03-17T02:48:31;100911.00;;;6.00
17142;BMP180;32805;53.556;9.944;2023-03-17T02:50:59;100917.00;;;6.10
17142;BMP180;32805;53.556;9.944;2023-03-17T02:53:27;100901.00;;;6.10
17142;BMP180;32805;53.556;9.944;2023-03-17T02:55:54;100899.00;;;6.00
17142;BMP180;32805;53.556;9.944;2023-03-17T02:58:24;100895.00;;;6.10
17142;BMP180;32805;53.556;9.944;2023-03-17T03:00:52;100899.00;;;6.10
17142;BMP180;32805;53.556;9.944;2023-03-17T03:03:19;100895.00;;;6.10
17142;BMP180;32805;53.556;9.944;2023-03-17T03:05:47;100897.00;;;6.10
17142;BMP180;32805;53.556;9.944;2023-03-17T03:08:15;100900.00;;;6.10
17142;BMP180;32805;53.556;9.944;2023-03-17T03:10:42;100906.00;;;6.10
17142;BMP180;32805;53.556;9.944;2023-03-17T03:13:10;100891.00;;;6.10
17142;BMP180;32805;53.556;9.944;2023-03-17T03:15:41;100896.00;;;6.10
17142;BMP180;32805;53.556;9.944;2023-03-17T03:18:09;100910.00;;;6.10
17142;BMP180;32805;53.556;9.944;2023-03-17T03:20:37;100904.00;;;6.10
17142;BMP180;32805;53.556;9.944;2023-03-17T03:23:07;100912.00;;;6.10
17142;BMP180;32805;53.556;9.944;2023-03-17T03:25:35;100918.00;;;6.10
17142;BMP180;32805;53.556;9.944;2023-03-17T03:28:03;100902.00;;;6.00
17142;BMP180;32805;53.556;9.944;2023-03-17T03:30:31;100904.00;;;6.00
17142;BMP180;32805;53.556;9.944;2023-03-17T03:33:01;100909.00;;;6.00
17142;BMP180;32805;53.556;9.944;2023-03-17T03:35:29;100897.00;;;6.00
17142;BMP180;32805;53.556;9.944;2023-03-17T03:37:57;100892.00;;;6.00
17142;BMP180;32805;53.556;9.944;2023-03-17T03:40:25;100890.00;;;6.00
17142;BMP180;32805;53.556;9.944;2023-03-17T03:42:52;100886.00;;;6.00
17142;BMP180;32805;53.556;9.944;2023-03-17T03:45:20;100873.00;;;5.90
17142;BMP180;32805;53.556;9.944;2023-03-17T03:47:48;100863.00;;;5.90
17142;BMP180;32805;53.556;9.944;2023-03-17T03:50:17;100860.00;;;5.80
17142;BMP180;32805;53.556;9.944;2023-03-17T03:52:45;100844.00;;;5.70
17142;BMP180;32805;53.556;9.944;2023-03-17T03:55:14;100822.00;;;5.70
17142;BMP180;32805;53.556;9.944;2023-03-17T03:57:42;100833.00;;;5.70
17142;BMP180;32805;53.556;9.944;2023-03-17T04:00:11;100830.00;;;5.70
17142;BMP180;32805;53.556;9.944;2023-03-17T04:02:39;100827.00;;;5.60
17142;BMP180;32805;53.556;9.944;2023-03-17T04:05:10;100839.00;;;5.70
17142;BMP180;32805;53.556;9.944;2023-03-17T04:07:41;100855.00;;;5.60
17142;BMP180;32805;53.556;9.944;2023-03-17T04:10:09;100862.00;;;5.60
17142;BMP180;32805;53.556;9.944;2023-03-17T04:12:37;100857.00;;;5.60
17142;BMP180;32805;53.556;9.944;2023-03-17T04:15:07;100843.00;;;5.60
17142;BMP180;32805;53.556;9.944;2023-03-17T04:17:35;100828.00;;;5.60
17142;BMP180;32805;53.556;9.944;2023-03-17T04:20:04;100833.00;;;5.60
17142;BMP180;32805;53.556;9.944;2023-03-17T04:22:32;100839.00;;;5.50
17142;BMP180;32805;53.556;9.944;2023-03-17T04:25:00;100829.00;;;5.50
17142;BMP180;32805;53.556;9.944;2023-03-17T04:27:28;100852.00;;;5.60
17142;BMP180;32805;53.556;9.944;2023-03-17T04:29:55;100853.00;;;5.50
17142;BMP180;32805;53.556;9.944;2023-03-17T04:32:23;100844.00;;;5.50
17142;BMP180;32805;53.556;9.944;2023-03-17T04:34:52;100851.00;;;5.40
17142;BMP180;32805;53.556;9.944;2023-03-17T04:37:20;100854.00;;;5.40
17142;BMP180;32805;53.556;9.944;2023-03-17T04:39:47;100845.00;;;5.40
17142;BMP180;32805;53.556;9.944;2023-03-17T04:42:17;100857.00;;;5.40
17142;BMP180;32805;53.556;9.944;2023-03-17T04:44:44;100852.00;;;5.40
17142;BMP180;32805;53.556;9.944;2023-03-17T04:47:12;100844.00;;;5.40
17142;BMP180;32805;53.556;9.944;2023-03-17T04:49:39;100851.00;;;5.40
17142;BMP180;32805;53.556;9.944;2023-03-17T04:52:07;100848.00;;;5.40
17142;BMP180;32805;53.556;9.944;2023-03-17T04:54:35;100843.00;;;5.40
17142;BMP180;32805;53.556;9.944;2023-03-17T04:57:03;100832.00;;;5.40
17142;BMP180;32805;53.556;9.944;2023-03-17T04:59:32;100830.00;;;5.30
17142;BMP180;32805;53.556;9.944;2023-03-17T05:01:59;100826.00;;;5.30
17142;BMP180;32805;53.556;9.944;2023-03-17T05:04:27;100823.00;;;5.20
17142;BMP180;32805;53.556;9.944;2023-03-17T05:06:57;100830.00;;;5.20
17142;BMP180;32805;53.556;9.944;2023-03-17T05:09:26;100828.00;;;5.30
17142;BMP180;32805;53.556;9.944;2023-03-17T05:11:54;100817.00;;;5.20
17142;BMP180;32805;53.556;9.944;2023-03-17T05:14:22;100833.00;;;5.10
17142;BMP180;32805;53.556;9.944;2023-03-17T05:16:50;100829.00;;;5.10
17142;BMP180;32805;53.556;9.944;2023-03-17T05:19:18;100816.00;;;5.10
17142;BMP180;32805;53.556;9.944;2023-03-17T05:21:46;100813.00;;;5.00
17142;BMP180;32805;53.556;9.944;2023-03-17T05:24:13;100820.00;;;5.00
17142;BMP180;32805;53.556;9.944;2023-03-17T05:26:41;100816.00;;;5.00
17142;BMP180;32805;53.556;9.944;2023-03-17T05:29:09;100805.00;;;5.10
17142;BMP180;32805;53.556;9.944;2023-03-17T05:31:37;100807.00;;;5.10
17142;BMP180;32805;53.556;9.944;2023-03-17T05:34:06;100809.00;;;5.00
17142;BMP180;32805;53.556;9.944;2023-03-17T05:36:33;100801.00;;;5.00
17142;BMP180;32805;53.556;9.944;2023-03-17T05:39:02;100805.00;;;5.10
17142;BMP180;32805;53.556;9.944;2023-03-17T05:41:30;100805.00;;;5.10
17142;BMP180;32805;53.556;9.944;2023-03-17T05:43:59;100794.00;;;5.10
17142;BMP180;32805;53.556;9.944;2023-03-17T05:46:26;100795.00;;;5.10
17142;BMP180;32805;53.556;9.944;2023-03-17T05:48:54;100785.00;;;5.10
17142;BMP180;32805;53.556;9.944;2023-03-17T05:51:23;100787.00;;;5.20
17142;BMP180;32805;53.556;9.944;2023-03-17T05:53:50;100782.00;;;5.20
17142;BMP180;32805;53.556;9.944;2023-03-17T05:56:18;100785.00;;;5.20
17142;BMP180;32805;53.556;9.944;2023-03-17T05:58:46;100784.00;;;5.30
17142;BMP180;32805;53.556;9.944;2023-03-17T06:01:13;100785.00;;;5.30
17142;BMP180;32805;53.556;9.944;2023-03-17T06:03:41;100784.00;;;5.30
17142;BMP180;32805;53.556;9.944;2023-03-17T06:06:08;100784.00;;;5.40
17142;BMP180;32805;53.556;9.944;2023-03-17T06:08:37;100792.00;;;5.50
17142;BMP180;32805;53.556;9.944;2023-03-17T06:11:05;100790.00;;;5.50
17142;BMP180;32805;53.556;9.944;2023-03-17T06:13:32;100795.00;;;5.50
17142;BMP180;32805;53.556;9.944;2023-03-17T06:16:00;100806.00;;;5.60
17142;BMP180;32805;53.556;9.944;2023-03-17T06:18:28;100794.00;;;5.60
17142;BMP180;32805;53.556;9.944;2023-03-17T06:20:56;100788.00;;;5.60
17142;BMP180;32805;53.556;9.944;2023-03-17T06:23:23;100789.00;;;5.60
17142;BMP180;32805;53.556;9.944;2023-03-17T06:25:52;100785.00;;;5.70
17142;BMP180;32805;53.556;9.944;2023-03-17T06:28:20;100786.00;;;5.70
17142;BMP180;32805;53.556;9.944;2023-03-17T06:30:48;100786.00;;;5.70
17142;BMP180;32805;53.556;9.944;2023-03-17T06:33:16;100770.00;;;5.70
17142;BMP180;32805;53.556;9.944;2023-03-17T06:35:44;100789.00;;;5.80
17142;BMP180;32805;53.556;9.944;2023-03-17T06:38:12;100786.00;;;5.70
17142;BMP180;32805;53.556;9.944;2023-03-17T06:40:40;100787.00;;;5.70
17142;BMP180;32805;53.556;9.944;2023-03-17T06:43:09;100781.00;;;5.80
17142;BMP180;32805;53.556;9.944;2023-03-17T06:45:36;100784.00;;;5.90
17142;BMP180;32805;53.556;9.944;2023-03-17T06:48:04;100785.00;;;6.00
17142;BMP180;32805;53.556;9.944;2023-03-17T06:50:32;100791.00;;;6.00
17142;BMP180;32805;53.556;9.944;2023-03-17T06:52:59;100795.00;;;6.10
17142;BMP180;32805;53.556;9.944;2023-03-17T06:55:27;100796.00;;;6.20
17142;BMP180;32805;53.556;9.944;2023-03-17T06:57:55;100791.00;;;6.30
17142;BMP180;32805;53.556;9.944;2023-03-17T07:00:25;100791.00;;;6.40
17142;BMP180;32805;53.556;9.944;2023-03-17T07:02:53;100797.00;;;6.50
17142;BMP180;32805;53.556;9.944;2023-03-17T07:05:21;100794.00;;;6.60
17142;BMP180;32805;53.556;9.944;2023-03-17T07:07:49;100794.00;;;6.80
17142;BMP180;32805;53.556;9.944;2023-03-17T07:10:17;100782.00;;;6.90
17142;BMP180;32805;53.556;9.944;2023-03-17T07:12:45;100797.00;;;6.90
17142;BMP180;32805;53.556;9.944;2023-03-17T07:15:13;100775.00;;;7.00
17142;BMP180;32805;53.556;9.944;2023-03-17T07:17:43;100773.00;;;7.10
17142;BMP180;32805;53.556;9.944;2023-03-17T07:20:12;100786.00;;;7.10
17142;BMP180;32805;53.556;9.944;2023-03-17T07:22:40;100800.00;;;7.10
17142;BMP180;32805;53.556;9.944;2023-03-17T07:25:08;100790.00;;;7.00
17142;BMP180;32805;53.556;9.944;2023-03-17T07:27:36;100795.00;;;6.90
17142;BMP180;32805;53.556;9.944;2023-03-17T07:30:05;100798.00;;;6.90
17142;BMP180;32805;53.556;9.944;2023-03-17T07:32:33;100788.00;;;6.90
17142;BMP180;32805;53.556;9.944;2023-03-17T07:35:02;100790.00;;;6.90
17142;BMP180;32805;53.556;9.944;2023-03-17T07:37:30;100801.00;;;7.00
17142;BMP180;32805;53.556;9.944;2023-03-17T07:39:58;100788.00;;;7.10
17142;BMP180;32805;53.556;9.944;2023-03-17T07:42:25;100792.00;;;7.20
17142;BMP180;32805;53.556;9.944;2023-03-17T07:44:54;100794.00;;;7.30
17142;BMP180;32805;53.556;9.944;2023-03-17T07:47:21;100790.00;;;7.50
17142;BMP180;32805;53.556;9.944;2023-03-17T07:49:49;100782.00;;;7.70
17142;BMP180;32805;53.556;9.944;2023-03-17T07:52:19;100779.00;;;7.80
17142;BMP180;32805;53.556;9.944;2023-03-17T07:54:48;100784.00;;;7.90
17142;BMP180;32805;53.556;9.944;2023-03-17T07:57:16;100783.00;;;7.90
17142;BMP180;32805;53.556;9.944;2023-03-17T07:59:44;100777.00;;;7.80
17142;BMP180;32805;53.556;9.944;2023-03-17T08:02:14;100779.00;;;8.00
17142;BMP180;32805;53.556;9.944;2023-03-17T08:04:44;100786.00;;;8.10
17142;BMP180;32805;53.556;9.944;2023-03-17T08:07:12;100779.00;;;8.10
17142;BMP180;32805;53.556;9.944;2023-03-17T08:09:42;100764.00;;;8.30
17142;BMP180;32805;53.556;9.944;2023-03-17T08:12:10;100762.00;;;8.40
17142;BMP180;32805;53.556;9.944;2023-03-17T08:14:37;100753.00;;;8.60
17142;BMP180;32805;53.556;9.944;2023-03-17T08:17:05;100749.00;;;8.90
17142;BMP180;32805;53.556;9.944;2023-03-17T08:19:33;100746.00;;;9.00
17142;BMP180;32805;53.556;9.944;2023-03-17T08:22:00;100740.00;;;9.20
17142;BMP180;32805;53.556;9.944;2023-03-17T08:24:28;100740.00;;;9.20
17142;BMP180;32805;53.556;9.944;2023-03-17T08:26:57;100746.00;;;9.30
17142;BMP180;32805;53.556;9.944;2023-03-17T08:29:26;100761.00;;;9.40
17142;BMP180;32805;53.556;9.944;2023-03-17T08:31:54;100769.00;;;9.50
17142;BMP180;32805;53.556;9.944;2023-03-17T08:34:22;100766.00;;;9.70
17142;BMP180;32805;53.556;9.944;2023-03-17T08:36:51;100760.00;;;9.80
17142;BMP180;32805;53.556;9.944;2023-03-17T08:39:19;100747.00;;;9.80
17142;BMP180;32805;53.556;9.944;2023-03-17T08:41:46;100751.00;;;9.90
17142;BMP180;32805;53.556;9.944;2023-03-17T08:44:15;100754.00;;;10.00
17142;BMP180;32805;53.556;9.944;2023-03-17T08:46:43;100742.00;;;10.10
17142;BMP180;32805;53.556;9.944;2023-03-17T08:49:11;100752.00;;;10.00
17142;BMP180;32805;53.556;9.944;2023-03-17T08:51:39;100744.00;;;10.20
17142;BMP180;32805;53.556;9.944;2023-03-17T08:54:07;100742.00;;;10.30
17142;BMP180;32805;53.556;9.944;2023-03-17T08:56:35;100734.00;;;10.50
17142;BMP180;32805;53.556;9.944;2023-03-17T08:59:04;100736.00;;;10.80
17142;BMP180;32805;53.556;9.944;2023-03-17T09:01:34;100711.00;;;11.20
17142;BMP180;32805;53.556;9.944;2023-03-17T09:04:03;100702.00;;;11.40
17142;BMP180;32805;53.556;9.944;2023-03-17T09:06:31;100706.00;;;11.60
17142;BMP180;32805;53.556;9.944;2023-03-17T09:08:58;100712.00;;;11.70
17142;BMP180;32805;53.556;9.944;2023-03-17T09:11:27;100710.00;;;11.70
17142;BMP180;32805;53.556;9.944;2023-03-17T09:13:57;100698.00;;;11.80
17142;BMP180;32805;53.556;9.944;2023-03-17T09:16:25;100702.00;;;11.80
17142;BMP180;32805;53.556;9.944;2023-03-17T09:18:55;100704.00;;;11.70
17142;BMP180;32805;53.556;9.944;2023-03-17T09:21:23;100687.00;;;11.70
17142;BMP180;32805;53.556;9.944;2023-03-17T09:23:50;100693.00;;;11.70
17142;BMP180;32805;53.556;9.944;2023-03-17T09:26:18;100671.00;;;11.80
17142;BMP180;32805;53.556;9.944;2023-03-17T09:28:45;100684.00;;;12.00
17142;BMP180;32805;53.556;9.944;2023-03-17T09:31:14;100686.00;;;11.90
17142;BMP180;32805;53.556;9.944;2023-03-17T09:33:41;100691.00;;;12.00
17142;BMP180;32805;53.556;9.944;2023-03-17T09:36:10;100705.00;;;12.10
17142;BMP180;32805;53.556;9.944;2023-03-17T09:38:39;100700.00;;;12.30
17142;BMP180;32805;53.556;9.944;2023-03-17T09:41:22;100696.00;;;12.40
17142;BMP180;32805;53.556;9.944;2023-03-17T09:43:55;100695.00;;;12.60
17142;BMP180;32805;53.556;9.944;2023-03-17T09:46:37;100701.00;;;12.70
17142;BMP180;32805;53.556;9.944;2023-03-17T09:49:07;100689.00;;;12.70
17142;BMP180;32805;53.556;9.944;2023-03-17T09:51:37;100678.00;;;12.80
17142;BMP180;32805;53.556;9.944;2023-03-17T09:54:10;100676.00;;;12.70
17142;BMP180;32805;53.556;9.944;2023-03-17T09:56:40;100673.00;;;12.80
17142;BMP180;32805;53.556;9.944;2023-03-17T09:59:26;100662.00;;;12.80
17142;BMP180;32805;53.556;9.944;2023-03-17T10:01:55;100667.00;;;12.80
17142;BMP180;32805;53.556;9.944;2023-03-17T10:04:23;100668.00;;;12.80
17142;BMP180;32805;53.556;9.944;2023-03-17T10:06:57;100668.00;;;12.80
17142;BMP180;32805;53.556;9.944;2023-03-17T10:09:32;100670.00;;;12.90
17142;BMP180;32805;53.556;9.944;2023-03-17T10:12:07;100665.00;;;13.00
17142;BMP180;32805;53.556;9.944;2023-03-17T10:14:50;100655.00;;;13.10
17142;BMP180;32805;53.556;9.944;2023-03-17T10:17:21;100680.00;;;13.10
17142;BMP180;32805;53.556;9.944;2023-03-17T10:19:56;100681.00;;;13.10
17142;BMP180;32805;53.556;9.944;2023-03-17T10:22:29;100683.00;;;13.10
17142;BMP180;32805;53.556;9.944;2023-03-17T10:25:01;100676.00;;;13.10
17142;BMP180;32805;53.556;9.944;2023-03-17T10:27:33;100684.00;;;13.40
17142;BMP180;32805;53.556;9.944;2023-03-17T10:30:03;100667.00;;;13.60
17142;BMP180;32805;53.556;9.944;2023-03-17T10:32:34;100671.00;;;13.80
17142;BMP180;32805;53.556;9.944;2023-03-17T10:35:04;100669.00;;;14.00
17142;BMP180;32805;53.556;9.944;2023-03-17T10:37:34;100662.00;;;14.10
17142;BMP180;32805;53.556;9.944;2023-03-17T10:40:05;100664.00;;;14.10
17142;BMP180;32805;53.556;9.944;2023-03-17T10:42:44;100657.00;;;14.10
17142;BMP180;32805;53.556;9.944;2023-03-17T10:45:15;100659.00;;;14.10
17142;BMP180;32805;53.556;9.944;2023-03-17T10:47:46;100667.00;;;14.10
17142;BMP180;32805;53.556;9.944;2023-03-17T10:50:20;100658.00;;;13.90
17142;BMP180;32805;53.556;9.944;2023-03-17T10:52:55;100667.00;;;13.90
17142;BMP180;32805;53.556;9.944;2023-03-17T10:55:27;100660.00;;;13.90
17142;BMP180;32805;53.556;9.944;2023-03-17T10:58:01;100660.00;;;13.70
17142;BMP180;32805;53.556;9.944;2023-03-17T11:00:31;100658.00;;;13.60
17142;BMP180;32805;53.556;9.944;2023-03-17T11:03:07;100661.00;;;13.60
17142;BMP180;32805;53.556;9.944;2023-03-17T11:05:37;100670.00;;;13.60
17142;BMP180;32805;53.556;9.944;2023-03-17T11:08:09;100666.00;;;13.50
17142;BMP180;32805;53.556;9.944;2023-03-17T11:10:38;100654.00;;;13.40
17142;BMP180;32805;53.556;9.944;2023-03-17T11:13:06;100652.00;;;13.40
17142;BMP180;32805;53.556;9.944;2023-03-17T11:15:38;100660.00;;;13.40
17142;BMP180;32805;53.556;9.944;2023-03-17T11:18:13;100657.00;;;13.50
17142;BMP180;32805;53.556;9.944;2023-03-17T11:20:48;100646.00;;;13.50
17142;BMP180;32805;53.556;9.944;2023-03-17T11:23:26;100648.00;;;13.50
17142;BMP180;32805;53.556;9.944;2023-03-17T11:26:07;100642.00;;;13.60
17142;BMP180;32805;53.556;9.944;2023-03-17T11:28:42;100636.00;;;13.60
17142;BMP180;32805;53.556;9.944;2023-03-17T11:31:15;100641.00;;;13.70
17142;BMP180;32805;53.556;9.944;2023-03-17T11:33:50;100638.00;;;13.80
17142;BMP180;32805;53.556;9.944;2023-03-17T11:36:33;100633.00;;;13.90
17142;BMP180;32805;53.556;9.944;2023-03-17T11:39:10;100614.00;;;14.00
17142;BMP180;32805;53.556;9.944;2023-03-17T11:41:46;100617.00;;;14.00
17142;BMP180;32805;53.556;9.944;2023-03-17T11:44:49;100624.00;;;14.00
17142;BMP180;32805;53.556;9.944;2023-03-17T11:47:39;100623.00;;;14.00
17142;BMP180;32805;53.556;9.944;2023-03-17T11:50:18;100623.00;;;14.10
17142;BMP180;32805;53.556;9.944;2023-03-17T11:53:03;100622.00;;;14.20
17142;BMP180;32805;53.556;9.944;2023-03-17T11:55:39;100612.00;;;14.10
17142;BMP180;32805;53.556;9.944;2023-03-17T11:58:23;100612.00;;;14.10
17142;BMP180;32805;53.556;9.944;2023-03-17T12:00:55;100621.00;;;14.10
17142;BMP180;32805;53.556;9.944;2023-03-17T12:03:29;100608.00;;;14.10
17142;BMP180;32805;53.556;9.944;2023-03-17T12:06:02;100609.00;;;14.10
17142;BMP180;32805;53.556;9.944;2023-03-17T12:08:36;100614.00;;;14.10
17142;BMP180;32805;53.556;9.944;2023-03-17T12:11:09;100607.00;;;14.20
17142;BMP180;32805;53.556;9.944;2023-03-17T12:13:40;100619.00;;;14.20
17142;BMP180;32805;53.556;9.944;2023-03-17T12:16:15;100608.00;;;14.20
17142;BMP180;32805;53.556;9.944;2023-03-17T12:18:51;100606.00;;;14.20
17142;BMP180;32805;53.556;9.944;2023-03-17T12:21:24;100606.00;;;14.30
17142;BMP180;32805;53.556;9.944;2023-03-17T12:23:57;100597.00;;;14.30
17142;BMP180;32805;53.556;9.944;2023-03-17T12:26:34;100594.00;;;14.40
17142;BMP180;32805;53.556;9.944;2023-03-17T12:29:05;100587.00;;;14.40
17142;BMP180;32805;53.556;9.944;2023-03-17T12:31:38;100590.00;;;14.40
17142;BMP180;32805;53.556;9.944;2023-03-17T12:34:09;100583.00;;;14.40
17142;BMP180;32805;53.556;9.944;2023-03-17T12:36:41;100591.00;;;14.50
17142;BMP180;32805;53.556;9.944;2023-03-17T12:39:12;100581.00;;;14.60
17142;BMP180;32805;53.556;9.944;2023-03-17T12:42:03;100582.00;;;14.60
17142;BMP180;32805;53.556;9.944;2023-03-17T12:44:42;100593.00;;;14.70
17142;BMP180;32805;53.556;9.944;2023-03-17T12:47:35;100599.00;;;14.70
17142;BMP180;32805;53.556;9.944;2023-03-17T12:50:35;100582.00;;;14.80
17142;BMP180;32805;53.556;9.944;2023-03-17T12:53:23;100575.00;;;14.80
17142;BMP180;32805;53.556;9.944;2023-03-17T12:55:54;100580.00;;;15.00
17142;BMP180;32805;53.556;9.944;2023-03-17T12:58:31;100577.00;;;15.00
17142;BMP180;32805;53.556;9.944;2023-03-17T13:01:06;100572.00;;;15.10
17142;BMP180;32805;53.556;9.944;2023-03-17T13:03:36;100572.00;;;15.20
17142;BMP180;32805;53.556;9.944;2023-03-17T13:06:15;100570.00;;;15.30
17142;BMP180;32805;53.556;9.944;2023-03-17T13:08:48;100569.00;;;15.40
17142;BMP180;32805;53.556;9.944;2023-03-17T13:11:24;100573.00;;;15.30
17142;BMP180;32805;53.556;9.944;2023-03-17T13:14:06;100580.00;;;15.20
17142;BMP180;32805;53.556;9.944;2023-03-17T13:16:44;100576.00;;;15.30
17142;BMP180;32805;53.556;9.944;2023-03-17T13:19:16;100581.00;;;15.30
17142;BMP180;32805;53.556;9.944;2023-03-17T13:21:49;100587.00;;;15.20
17142;BMP180;32805;53.556;9.944;2023-03-17T13:24:20;100588.00;;;15.20
17142;BMP180;32805;53.556;9.944;2023-03-17T13:26:56;100588.00;;;15.20
17142;BMP180;32805;53.556;9.944;2023-03-17T13:29:38;100592.00;;;15.30
17142;BMP180;32805;53.556;9.944;2023-03-17T13:35:17;100581.00;;;15.40
17142;BMP180;32805;53.556;9.944;2023-03-17T13:37:57;100582.00;;;15.40
17142;BMP180;32805;53.556;9.944;2023-03-17T13:40:30;100582.00;;;15.30
17142;BMP180;32805;53.556;9.944;2023-03-17T13:43:11;100574.00;;;15.40
17142;BMP180;32805;53.556;9.944;2023-03-17T13:45:43;100579.00;;;15.40
17142;BMP180;32805;53.556;9.944;2023-03-17T13:48:30;100576.00;;;15.40
17142;BMP180;32805;53.556;9.944;2023-03-17T13:51:00;100579.00;;;15.50
17142;BMP180;32805;53.556;9.944;2023-03-17T13:53:30;100565.00;;;15.50
17142;BMP180;32805;53.556;9.944;2023-03-17T13:56:21;100566.00;;;15.50
17142;BMP180;32805;53.556;9.944;2023-03-17T13:58:52;100560.00;;;15.50
17142;BMP180;32805;53.556;9.944;2023-03-17T14:01:21;100563.00;;;15.60
17142;BMP180;32805;53.556;9.944;2023-03-17T14:03:50;100564.00;;;15.60
17142;BMP180;32805;53.556;9.944;2023-03-17T14:06:22;100560.00;;;15.60
17142;BMP180;32805;53.556;9.944;2023-03-17T14:08:53;100556.00;;;15.60
17142;BMP180;32805;53.556;9.944;2023-03-17T14:11:27;100566.00;;;15.50
17142;BMP180;32805;53.556;9.944;2023-03-17T14:14:07;100559.00;;;15.50
17142;BMP180;32805;53.556;9.944;2023-03-17T14:16:52;100562.00;;;15.60
17142;BMP180;32805;53.556;9.944;2023-03-17T14:19:23;100562.00;;;15.70
17142;BMP180;32805;53.556;9.944;2023-03-17T14:21:52;100555.00;;;15.80
17142;BMP180;32805;53.556;9.944;2023-03-17T14:24:22;100551.00;;;15.90
17142;BMP180;32805;53.556;9.944;2023-03-17T14:26:50;100555.00;;;16.00
17142;BMP180;32805;53.556;9.944;2023-03-17T14:29:20;100554.00;;;16.20
17142;BMP180;32805;53.556;9.944;2023-03-17T14:32:01;100546.00;;;16.40